createdAt,value
2023-02-17T00:01:33.738Z,97957.16
2023-02-17T00:04:01.621Z,97956.78
2023-02-17T00:06:30.937Z,97946.72
2023-02-17T00:09:00.077Z,97945.94
2023-02-17T00:11:28.548Z,97949.56
2023-02-17T00:13:56.608Z,97950.56
2023-02-17T00:16:27.103Z,97947.31
2023-02-17T00:18:58.990Z,97948.50
2023-02-17T00:21:29.912Z,97951.53
2023-02-17T00:23:57.901Z,97945.28
2023-02-17T00:26:25.051Z,97953.50
2023-02-17T00:28:52.414Z,97958.31
2023-02-17T00:31:23.113Z,97954.50
2023-02-17T00:33:55.624Z,97958.47
2023-02-17T00:36:23.458Z,97965.25
2023-02-17T00:38:50.730Z,97970.03
2023-02-17T00:41:19.430Z,97957.34
2023-02-17T00:43:47.809Z,97947.91
2023-02-17T00:46:17.746Z,97956.22
2023-02-17T00:48:47.609Z,97951.06
2023-02-17T00:51:16.977Z,97951.81
2023-02-17T00:53:45.047Z,97948.22
2023-02-17T00:56:12.613Z,97953.63
2023-02-17T00:58:41.646Z,97947.41
2023-02-17T01:01:10.478Z,97938.94
2023-02-17T01:03:42.379Z,97934.09
2023-02-17T01:06:17.191Z,97917.50
2023-02-17T01:08:44.424Z,97921.34
2023-02-17T01:11:26.018Z,97910.56
2023-02-17T01:13:54.940Z,97905.78
2023-02-17T01:16:29.442Z,97905.16
2023-02-17T01:18:59.542Z,97909.38
2023-02-17T01:21:28.901Z,97908.19
2023-02-17T01:23:59.297Z,97914.03
2023-02-17T01:26:28.730Z,97909.00
2023-02-17T01:28:56.799Z,97906.59
2023-02-17T01:31:27.271Z,97908.00
2023-02-17T01:33:57.337Z,97906.41
2023-02-17T01:36:25.296Z,97910.59
2023-02-17T01:38:52.622Z,97903.59
2023-02-17T01:41:28.572Z,97900.34
2023-02-17T01:44:17.933Z,97898.16
2023-02-17T01:46:48.993Z,97913.38
2023-02-17T01:49:40.428Z,97902.13
2023-02-17T01:52:21.368Z,97902.06
2023-02-17T01:54:56.200Z,97905.19
2023-02-17T01:57:30.381Z,97896.03
2023-02-17T01:59:58.427Z,97901.22
2023-02-17T02:02:26.027Z,97891.97
2023-02-17T02:04:55.722Z,97887.97
2023-02-17T02:07:36.001Z,97884.34
2023-02-17T02:10:04.417Z,97886.00
2023-02-17T02:12:35.599Z,97881.56
2023-02-17T02:15:17.493Z,97886.34
2023-02-17T02:18:42.207Z,97884.34
2023-02-17T02:21:40.581Z,97878.13
2023-02-17T02:24:23.645Z,97872.75
2023-02-17T02:27:28.571Z,97867.63
2023-02-17T02:30:44.716Z,97867.44
2023-02-17T02:33:33.947Z,97857.59
2023-02-17T02:36:10.999Z,97838.16
2023-02-17T02:38:49.007Z,97839.56
2023-02-17T02:41:48.311Z,97843.59
2023-02-17T02:44:20.318Z,97840.16
2023-02-17T02:46:58.848Z,97834.97
2023-02-17T02:49:28.240Z,97835.16
2023-02-17T02:52:17.446Z,97842.56
2023-02-17T02:55:15.161Z,97840.38
2023-02-17T02:58:03.666Z,97841.19
2023-02-17T03:01:03.920Z,97839.50
2023-02-17T03:04:06.510Z,97837.03
2023-02-17T03:06:49.703Z,97825.88
2023-02-17T03:09:27.955Z,97839.38
2023-02-17T03:11:57.669Z,97845.88
2023-02-17T03:14:28.679Z,97820.66
2023-02-17T03:16:55.933Z,97818.09
2023-02-17T03:19:26.053Z,97819.53
2023-02-17T03:22:13.027Z,97818.50
2023-02-17T03:24:40.472Z,97822.97
2023-02-17T03:27:09.176Z,97831.28
2023-02-17T03:29:36.456Z,97816.56
2023-02-17T03:32:04.127Z,97815.94
2023-02-17T03:34:31.525Z,97808.47
2023-02-17T03:36:58.713Z,97818.41
2023-02-17T03:39:26.020Z,97814.50
2023-02-17T03:41:53.521Z,97811.19
2023-02-17T03:44:21.230Z,97805.13
2023-02-17T03:46:48.531Z,97795.78
2023-02-17T03:49:16.031Z,97794.66
2023-02-17T03:51:43.192Z,97797.75
2023-02-17T03:54:10.536Z,97788.19
2023-02-17T03:56:37.668Z,97796.84
2023-02-17T03:59:05.574Z,97787.38
2023-02-17T04:01:33.242Z,97792.94
2023-02-17T04:04:00.669Z,97796.28
2023-02-17T04:06:28.038Z,97798.34
2023-02-17T04:08:55.228Z,97801.56
2023-02-17T04:11:22.515Z,97802.22
2023-02-17T04:13:49.690Z,97802.22
2023-02-17T04:16:17.406Z,97797.16
2023-02-17T04:18:44.715Z,97803.03
2023-02-17T04:21:12.007Z,97800.97
2023-02-17T04:23:39.458Z,97802.91
2023-02-17T04:26:09.172Z,97800.41
2023-02-17T04:28:39.684Z,97796.50
2023-02-17T04:31:07.080Z,97800.06
2023-02-17T04:33:35.237Z,97796.06
2023-02-17T04:36:02.827Z,97789.44
2023-02-17T04:38:32.143Z,97789.09
2023-02-17T04:41:01.033Z,97791.81
2023-02-17T04:43:29.211Z,97795.03
2023-02-17T04:45:57.242Z,97793.66
2023-02-17T04:48:25.650Z,97792.75
2023-02-17T04:50:53.365Z,97797.66
2023-02-17T04:53:20.909Z,97787.72
2023-02-17T04:55:53.428Z,97792.84
2023-02-17T04:58:21.901Z,97795.91
2023-02-17T05:00:50.648Z,97793.19
2023-02-17T05:03:19.443Z,97790.31
2023-02-17T05:05:46.871Z,97790.00
2023-02-17T05:08:14.145Z,97789.66
2023-02-17T05:10:41.406Z,97788.03
2023-02-17T05:13:08.591Z,97786.91
2023-02-17T05:15:36.153Z,97789.06
2023-02-17T05:18:03.850Z,97793.84
2023-02-17T05:20:31.589Z,97790.78
2023-02-17T05:22:58.906Z,97785.84
2023-02-17T05:25:26.181Z,97780.91
2023-02-17T05:27:53.470Z,97780.31
2023-02-17T05:30:20.924Z,97787.63
2023-02-17T05:32:48.308Z,97780.59
2023-02-17T05:35:15.493Z,97779.78
2023-02-17T05:37:42.764Z,97777.28
2023-02-17T05:40:11.395Z,97774.19
2023-02-17T05:42:39.085Z,97773.50
2023-02-17T05:45:06.875Z,97771.44
2023-02-17T05:47:35.686Z,97769.03
2023-02-17T05:50:04.380Z,97757.09
2023-02-17T05:52:32.588Z,97757.56
2023-02-17T05:54:59.872Z,97756.22
2023-02-17T05:57:27.661Z,97755.00
2023-02-17T05:59:55.031Z,97760.31
2023-02-17T06:02:22.409Z,97754.34
2023-02-17T06:04:49.839Z,97750.81
2023-02-17T06:07:18.308Z,97747.25
2023-02-17T06:09:47.237Z,97751.47
2023-02-17T06:12:14.670Z,97749.81
2023-02-17T06:14:41.884Z,97743.50
2023-02-17T06:17:09.206Z,97743.44
2023-02-17T06:19:36.410Z,97730.84
2023-02-17T06:22:03.675Z,97736.66
2023-02-17T06:24:31.113Z,97742.56
2023-02-17T06:26:58.521Z,97732.34
2023-02-17T06:29:25.863Z,97729.81
2023-02-17T06:31:53.205Z,97736.09
2023-02-17T06:34:20.587Z,97730.75
2023-02-17T06:36:47.866Z,97734.66
2023-02-17T06:39:15.199Z,97726.19
2023-02-17T06:41:42.934Z,97726.16
2023-02-17T06:44:10.566Z,97727.09
2023-02-17T06:46:37.832Z,97728.81
2023-02-17T06:49:06.234Z,97724.06
2023-02-17T06:51:33.504Z,97723.41
2023-02-17T06:54:00.763Z,97719.19
2023-02-17T06:56:27.997Z,97722.53
2023-02-17T06:58:55.204Z,97715.09
2023-02-17T07:01:28.596Z,97724.41
2023-02-17T07:03:57.167Z,97721.53
2023-02-17T07:06:25.777Z,97719.06
2023-02-17T07:08:53.476Z,97725.50
2023-02-17T07:11:21.231Z,97730.47
2023-02-17T07:13:48.651Z,97733.88
2023-02-17T07:16:16.348Z,97738.50
2023-02-17T07:18:43.975Z,97738.47
2023-02-17T07:21:12.000Z,97736.03
2023-02-17T07:23:39.781Z,97740.59
2023-02-17T07:26:12.162Z,97738.38
2023-02-17T07:28:40.974Z,97737.25
2023-02-17T07:31:17.375Z,97737.31
2023-02-17T07:33:45.760Z,97733.78
2023-02-17T07:36:16.851Z,97722.22
2023-02-17T07:38:44.556Z,97725.72
2023-02-17T07:41:21.459Z,97734.19
2023-02-17T07:43:49.432Z,97732.88
2023-02-17T07:46:19.747Z,97736.75
2023-02-17T07:48:57.632Z,97741.63
2023-02-17T07:51:25.254Z,97734.41
2023-02-17T07:53:53.625Z,97742.66
2023-02-17T07:56:23.363Z,97735.41
2023-02-17T07:58:51.103Z,97743.00
2023-02-17T08:01:23.453Z,97732.00
2023-02-17T08:03:52.328Z,97714.00
2023-02-17T08:06:23.356Z,97714.00
2023-02-17T08:09:11.769Z,97711.25
2023-02-17T08:11:58.126Z,97720.66
2023-02-17T08:14:28.292Z,97720.31
2023-02-17T08:16:56.312Z,97730.94
2023-02-17T08:19:24.251Z,97727.69
2023-02-17T08:22:01.431Z,97739.16
2023-02-17T08:24:31.384Z,97732.63
2023-02-17T08:27:05.290Z,97732.69
2023-02-17T08:29:32.663Z,97731.03
2023-02-17T08:31:59.988Z,97724.63
2023-02-17T08:34:33.802Z,97725.13
2023-02-17T08:37:02.522Z,97729.34
2023-02-17T08:39:30.113Z,97729.72
2023-02-17T08:41:58.875Z,97716.25
2023-02-17T08:44:28.982Z,97721.28
2023-02-17T08:46:56.480Z,97727.97
2023-02-17T08:49:26.089Z,97718.22
2023-02-17T08:51:53.958Z,97721.28
2023-02-17T08:54:21.157Z,97718.03
2023-02-17T08:56:48.517Z,97707.06
2023-02-17T08:59:16.009Z,97707.25
2023-02-17T09:01:44.139Z,97713.94
2023-02-17T09:04:13.966Z,97720.19
2023-02-17T09:06:49.110Z,97716.63
2023-02-17T09:09:22.715Z,97719.63
2023-02-17T09:11:50.469Z,97718.91
2023-02-17T09:14:17.768Z,97716.81
2023-02-17T09:16:45.144Z,97717.44
2023-02-17T09:19:12.518Z,97716.31
2023-02-17T09:21:39.788Z,97722.53
2023-02-17T09:24:07.239Z,97729.78
2023-02-17T09:26:36.483Z,97725.56
2023-02-17T09:29:05.305Z,97728.34
2023-02-17T09:31:35.906Z,97724.91
2023-02-17T09:34:05.678Z,97736.19
2023-02-17T09:36:38.992Z,97730.44
2023-02-17T09:39:06.889Z,97720.94
2023-02-17T09:41:44.817Z,97721.13
2023-02-17T09:44:59.941Z,97722.72
2023-02-17T09:47:40.894Z,97719.16
2023-02-17T09:50:29.124Z,97715.72
2023-02-17T09:53:06.839Z,97706.31
2023-02-17T09:55:48.031Z,97697.53
2023-02-17T09:58:43.819Z,97700.00
2023-02-17T10:01:20.601Z,97698.81
2023-02-17T10:04:09.120Z,97704.16
2023-02-17T10:06:44.562Z,97692.81
2023-02-17T10:09:22.882Z,97687.97
2023-02-17T10:12:37.489Z,97690.44
2023-02-17T10:15:19.364Z,97682.22
2023-02-17T10:18:19.968Z,97685.72
2023-02-17T10:20:59.804Z,97677.69
2023-02-17T10:23:44.683Z,97669.56
2023-02-17T10:27:04.047Z,97670.41
2023-02-17T10:30:06.642Z,97675.59
2023-02-17T10:33:20.196Z,97668.38
2023-02-17T10:36:09.891Z,97678.88
2023-02-17T10:39:12.510Z,97677.03
2023-02-17T10:41:42.596Z,97673.63
2023-02-17T10:44:21.290Z,97670.56
2023-02-17T10:46:50.080Z,97658.69
2023-02-17T10:49:32.965Z,97657.59
2023-02-17T10:52:32.344Z,97662.78
2023-02-17T10:55:34.069Z,97661.09
2023-02-17T10:58:15.347Z,97659.44
2023-02-17T11:00:43.292Z,97655.91
2023-02-17T11:03:22.066Z,97648.91
2023-02-17T11:06:02.835Z,97651.22
2023-02-17T11:08:59.467Z,97640.06
2023-02-17T11:11:30.749Z,97640.38
2023-02-17T11:14:04.258Z,97642.38
2023-02-17T11:16:52.338Z,97641.25
2023-02-17T11:19:30.659Z,97637.34
2023-02-17T11:22:00.687Z,97638.09
2023-02-17T11:24:31.561Z,97637.22
2023-02-17T11:27:25.441Z,97631.13
2023-02-17T11:29:53.319Z,97624.06
2023-02-17T11:32:36.250Z,97620.38
2023-02-17T11:35:06.374Z,97620.31
2023-02-17T11:37:38.099Z,97610.69
2023-02-17T11:40:26.659Z,97613.84
2023-02-17T11:43:03.079Z,97612.41
2023-02-17T11:46:18.343Z,97620.34
2023-02-17T11:49:06.412Z,97608.72
2023-02-17T11:51:42.902Z,97607.72
2023-02-17T11:55:03.399Z,97609.75
2023-02-17T11:57:45.855Z,97601.59
2023-02-17T12:00:15.010Z,97599.81
2023-02-17T12:03:12.662Z,97599.69
2023-02-17T12:05:52.000Z,97588.75
2023-02-17T12:08:30.665Z,97596.06
2023-02-17T12:11:00.615Z,97577.00
2023-02-17T12:14:01.781Z,97573.19
2023-02-17T12:16:54.583Z,97578.31
2023-02-17T12:19:42.909Z,97575.81
2023-02-17T12:22:18.725Z,97575.31
2023-02-17T12:25:20.885Z,97570.09
2023-02-17T12:28:12.638Z,97569.84
2023-02-17T12:31:18.328Z,97558.13
2023-02-17T12:34:20.189Z,97557.38
2023-02-17T12:36:50.118Z,97560.34
2023-02-17T12:39:35.184Z,97551.78
2023-02-17T12:42:10.031Z,97551.72
2023-02-17T12:45:06.956Z,97549.66
2023-02-17T12:47:58.526Z,97551.25
2023-02-17T12:50:52.164Z,97538.56
2023-02-17T12:53:51.480Z,97531.25
2023-02-17T12:56:51.448Z,97527.31
2023-02-17T12:59:26.366Z,97517.81
2023-02-17T13:02:10.568Z,97521.31
2023-02-17T13:04:38.665Z,97501.44
2023-02-17T13:07:39.328Z,97497.94
2023-02-17T13:10:18.712Z,97499.50
2023-02-17T13:13:05.794Z,97495.63
2023-02-17T13:15:43.247Z,97492.53
2023-02-17T13:18:28.829Z,97485.06
2023-02-17T13:20:56.047Z,97475.59
2023-02-17T13:23:36.594Z,97474.53
2023-02-17T13:26:32.877Z,97461.31
2023-02-17T13:29:19.546Z,97461.22
2023-02-17T13:31:54.014Z,97445.03
2023-02-17T13:34:38.774Z,97440.47
2023-02-17T13:37:34.923Z,97445.78
2023-02-17T13:40:26.917Z,97459.38
2023-02-17T13:43:07.973Z,97445.88
2023-02-17T13:45:57.395Z,97449.38
2023-02-17T13:48:31.387Z,97450.28
2023-02-17T13:51:03.542Z,97459.25
2023-02-17T13:53:37.843Z,97451.94
2023-02-17T13:56:31.823Z,97443.97
2023-02-17T13:59:18.907Z,97438.22
2023-02-17T14:01:47.139Z,97427.16
2023-02-17T14:04:30.967Z,97432.56
2023-02-17T14:07:00.380Z,97426.88
2023-02-17T14:09:34.017Z,97422.91
2023-02-17T14:12:21.277Z,97420.06
2023-02-17T14:14:48.692Z,97425.72
2023-02-17T14:17:32.633Z,97437.41
2023-02-17T14:20:01.042Z,97441.91
2023-02-17T14:22:32.252Z,97441.63
2023-02-17T14:25:14.333Z,97432.53
2023-02-17T14:27:48.808Z,97421.63
2023-02-17T14:30:38.077Z,97416.09
2023-02-17T14:33:18.505Z,97415.34
2023-02-17T14:36:07.847Z,97406.41
2023-02-17T14:38:40.723Z,97395.97
2023-02-17T14:41:10.368Z,97375.38
2023-02-17T14:43:37.714Z,97374.63
2023-02-17T14:46:05.637Z,97366.47
2023-02-17T14:48:33.172Z,97365.44
2023-02-17T14:51:00.524Z,97357.16
2023-02-17T14:53:33.930Z,97342.22
2023-02-17T14:56:08.917Z,97340.59
2023-02-17T14:58:36.429Z,97331.84
2023-02-17T15:01:03.692Z,97324.63
2023-02-17T15:03:31.083Z,97323.88
2023-02-17T15:06:00.028Z,97319.41
2023-02-17T15:08:35.982Z,97329.66
2023-02-17T15:11:03.736Z,97335.22
2023-02-17T15:13:32.044Z,97325.06
2023-02-17T15:15:59.849Z,97326.97
2023-02-17T15:18:28.133Z,97330.44
2023-02-17T15:20:55.707Z,97328.34
2023-02-17T15:23:26.362Z,97328.06
2023-02-17T15:25:56.126Z,97323.50
2023-02-17T15:28:23.770Z,97322.41
2023-02-17T15:30:54.813Z,97307.22
2023-02-17T15:33:24.405Z,97306.44
2023-02-17T15:35:54.601Z,97303.53
2023-02-17T15:38:23.960Z,97295.88
2023-02-17T15:40:51.639Z,97282.06
2023-02-17T15:43:22.973Z,97284.97
2023-02-17T15:45:50.653Z,97276.78
2023-02-17T15:48:32.918Z,97271.19
2023-02-17T15:51:00.227Z,97262.09
2023-02-17T15:53:32.424Z,97262.88
2023-02-17T15:56:01.415Z,97247.84
2023-02-17T15:58:30.416Z,97248.66
2023-02-17T16:01:01.713Z,97237.78
2023-02-17T16:03:29.741Z,97244.72
2023-02-17T16:05:56.980Z,97253.66
2023-02-17T16:08:24.303Z,97261.56
2023-02-17T16:10:52.371Z,97254.44
2023-02-17T16:13:19.835Z,97248.66
2023-02-17T16:15:49.053Z,97252.28
2023-02-17T16:18:24.442Z,97252.25
2023-02-17T16:20:52.583Z,97257.56
2023-02-17T16:23:20.034Z,97258.09
2023-02-17T16:25:49.128Z,97264.53
2023-02-17T16:28:20.397Z,97266.72
2023-02-17T16:30:49.545Z,97260.97
2023-02-17T16:33:18.058Z,97268.13
2023-02-17T16:35:45.593Z,97263.66
2023-02-17T16:38:24.104Z,97264.69
2023-02-17T16:40:53.782Z,97254.97
2023-02-17T16:43:26.919Z,97244.91
2023-02-17T16:46:03.950Z,97255.13
2023-02-17T16:48:35.531Z,97248.16
2023-02-17T16:51:02.926Z,97254.44
2023-02-17T16:53:30.264Z,97251.06
2023-02-17T16:55:57.596Z,97242.66
2023-02-17T16:58:27.236Z,97227.38
2023-02-17T17:00:56.322Z,97226.09
2023-02-17T17:03:23.690Z,97230.78
2023-02-17T17:05:52.742Z,97214.72
2023-02-17T17:08:21.695Z,97219.25
2023-02-17T17:10:49.887Z,97223.72
2023-02-17T17:13:17.377Z,97218.19
2023-02-17T17:15:46.186Z,97215.56
2023-02-17T17:18:21.217Z,97202.97
2023-02-17T17:20:49.491Z,97196.38
2023-02-17T17:23:18.422Z,97192.41
2023-02-17T17:25:47.061Z,97205.88
2023-02-17T17:28:18.678Z,97209.31
2023-02-17T17:30:46.983Z,97210.69
2023-02-17T17:33:14.348Z,97201.16
2023-02-17T17:35:41.950Z,97194.31
2023-02-17T17:38:15.470Z,97188.28
2023-02-17T17:40:53.362Z,97200.16
2023-02-17T17:43:23.471Z,97188.53
2023-02-17T17:45:51.981Z,97202.53
2023-02-17T17:48:19.522Z,97198.06
2023-02-17T17:50:49.016Z,97192.25
2023-02-17T17:53:16.542Z,97196.47
2023-02-17T17:55:43.741Z,97182.47
2023-02-17T17:58:11.183Z,97178.00
2023-02-17T18:00:38.430Z,97175.63
2023-02-17T18:03:05.792Z,97179.31
2023-02-17T18:05:33.102Z,97179.06
2023-02-17T18:08:01.332Z,97180.69
2023-02-17T18:10:28.772Z,97172.47
2023-02-17T18:12:56.390Z,97175.38
2023-02-17T18:15:23.862Z,97182.75
2023-02-17T18:17:52.684Z,97182.75
2023-02-17T18:20:20.198Z,97177.75
2023-02-17T18:22:47.575Z,97196.75
2023-02-17T18:25:14.993Z,97199.66
2023-02-17T18:27:45.746Z,97204.16
2023-02-17T18:30:16.444Z,97196.75
2023-02-17T18:32:44.471Z,97207.81
2023-02-17T18:35:13.097Z,97200.72
2023-02-17T18:37:41.589Z,97212.59
2023-02-17T18:40:12.703Z,97207.56
2023-02-17T18:42:42.438Z,97209.16
2023-02-17T18:45:10.054Z,97218.13
2023-02-17T18:47:38.052Z,97236.84
2023-02-17T18:50:07.414Z,97224.19
2023-02-17T18:52:36.236Z,97226.06
2023-02-17T18:55:04.361Z,97225.50
2023-02-17T18:57:33.279Z,97220.75
2023-02-17T19:00:00.758Z,97213.38
2023-02-17T19:02:28.909Z,97226.03
2023-02-17T19:04:57.011Z,97225.25
2023-02-17T19:07:24.254Z,97229.75
2023-02-17T19:09:53.046Z,97226.56
2023-02-17T19:12:20.666Z,97221.56
2023-02-17T19:14:53.171Z,97218.38
2023-02-17T19:17:20.693Z,97213.34
2023-02-17T19:19:48.071Z,97221.00
2023-02-17T19:22:15.477Z,97224.44
2023-02-17T19:24:43.045Z,97221.28
2023-02-17T19:27:11.703Z,97219.44
2023-02-17T19:29:40.387Z,97221.25
2023-02-17T19:32:08.038Z,97222.59
2023-02-17T19:34:37.445Z,97219.69
2023-02-17T19:37:05.354Z,97227.06
2023-02-17T19:39:35.098Z,97219.13
2023-02-17T19:42:03.237Z,97224.16
2023-02-17T19:44:33.866Z,97219.16
2023-02-17T19:47:01.326Z,97226.56
2023-02-17T19:49:28.577Z,97228.66
2023-02-17T19:51:55.957Z,97209.09
2023-02-17T19:54:24.458Z,97213.88
2023-02-17T19:56:52.364Z,97216.25
2023-02-17T19:59:19.903Z,97211.22
2023-02-17T20:02:12.318Z,97217.28
2023-02-17T20:04:39.911Z,97223.34
2023-02-17T20:07:07.156Z,97221.28
2023-02-17T20:09:34.525Z,97224.69
2023-02-17T20:12:01.750Z,97224.44
2023-02-17T20:14:29.043Z,97240.53
2023-02-17T20:16:56.544Z,97242.38
2023-02-17T20:19:24.018Z,97223.63
2023-02-17T20:21:51.380Z,97212.25
2023-02-17T20:24:18.683Z,97208.56
2023-02-17T20:26:48.508Z,97197.97
2023-02-17T20:29:15.944Z,97180.56
2023-02-17T20:31:43.972Z,97176.06
2023-02-17T20:34:33.164Z,97154.94
2023-02-17T20:37:01.457Z,97153.09
2023-02-17T20:39:29.326Z,97180.84
2023-02-17T20:41:57.233Z,97216.47
2023-02-17T20:44:27.707Z,97205.66
2023-02-17T20:46:57.232Z,97218.06
2023-02-17T20:49:25.413Z,97232.84
2023-02-17T20:51:52.778Z,97224.66
2023-02-17T20:54:20.109Z,97212.78
2023-02-17T20:56:48.663Z,97205.66
2023-02-17T20:59:16.002Z,97202.72
2023-02-17T21:01:43.503Z,97208.53
2023-02-17T21:04:11.226Z,97208.78
2023-02-17T21:06:41.316Z,97216.47
2023-02-17T21:09:16.204Z,97205.63
2023-02-17T21:11:44.440Z,97197.22
2023-02-17T21:14:12.355Z,97197.75
2023-02-17T21:16:39.667Z,97195.28
2023-02-17T21:19:07.558Z,97194.78
2023-02-17T21:21:35.821Z,97195.88
2023-02-17T21:24:03.140Z,97185.84
2023-02-17T21:26:30.526Z,97195.31
2023-02-17T21:28:57.806Z,97182.91
2023-02-17T21:31:28.985Z,97180.78
2023-02-17T21:33:58.542Z,97178.94
2023-02-17T21:36:28.685Z,97168.63
2023-02-17T21:38:56.758Z,97171.03
2023-02-17T21:41:26.551Z,97169.47
2023-02-17T21:44:13.767Z,97167.03
2023-02-17T21:46:43.005Z,97153.31
2023-02-17T21:49:11.026Z,97162.53
2023-02-17T21:51:39.696Z,97172.25
2023-02-17T21:54:08.013Z,97178.31
2023-02-17T21:56:36.493Z,97177.00
2023-02-17T21:59:04.821Z,97170.19
2023-02-17T22:01:32.159Z,97178.31
2023-02-17T22:03:59.818Z,97179.38
2023-02-17T22:06:35.793Z,97170.66
2023-02-17T22:09:05.197Z,97184.13
2023-02-17T22:11:36.526Z,97184.69
2023-02-17T22:14:12.574Z,97169.31
2023-02-17T22:16:40.347Z,97165.38
2023-02-17T22:19:12.300Z,97170.63
2023-02-17T22:21:39.970Z,97169.28
2023-02-17T22:24:07.682Z,97161.66
2023-02-17T22:26:35.049Z,97156.91
2023-02-17T22:29:02.341Z,97175.41
2023-02-17T22:31:31.202Z,97166.16
2023-02-17T22:34:02.604Z,97173.53
2023-02-17T22:36:33.639Z,97162.97
2023-02-17T22:39:01.817Z,97167.50
2023-02-17T22:41:29.148Z,97154.78
2023-02-17T22:43:56.419Z,97152.44
2023-02-17T22:46:27.167Z,97151.16
2023-02-17T22:48:57.051Z,97150.34
2023-02-17T22:51:31.639Z,97165.19
2023-02-17T22:54:01.166Z,97168.31
2023-02-17T22:56:30.007Z,97165.97
2023-02-17T22:59:00.978Z,97173.06
2023-02-17T23:01:31.172Z,97174.13
2023-02-17T23:03:58.557Z,97180.19
2023-02-17T23:06:33.135Z,97180.72
2023-02-17T23:09:01.786Z,97192.34
2023-02-17T23:11:49.926Z,97192.09
2023-02-17T23:14:33.035Z,97181.81
2023-02-17T23:17:13.128Z,97195.81
2023-02-17T23:19:42.307Z,97180.75
2023-02-17T23:22:16.057Z,97185.25
2023-02-17T23:24:47.738Z,97186.34
2023-02-17T23:27:15.219Z,97188.97
2023-02-17T23:29:42.756Z,97190.00
2023-02-17T23:32:10.149Z,97187.91
2023-02-17T23:34:38.263Z,97183.19
2023-02-17T23:37:07.604Z,97197.94
2023-02-17T23:39:38.035Z,97191.06
2023-02-17T23:42:05.517Z,97198.47
2023-02-17T23:44:32.745Z,97194.78
2023-02-17T23:46:59.928Z,97192.66
2023-02-17T23:49:27.214Z,97198.22
2023-02-17T23:51:54.435Z,97196.13
2023-02-17T23:54:21.648Z,97196.66
2023-02-17T23:56:48.875Z,97198.75
2023-02-17T23:59:16.038Z,97204.84
